Latest Weather Observations for Fawkner Beacon

IDV60901

Issued at 12:11 am EDT Monday 25 October 2021 (issued every 10 minutes, with the page automatically refreshed every 10 minutes)

About weather observations | Map of Melbourne area stations | Latest observations for Melbourne area | Other Formats
Station Details ID: 086376 Name: FAWKNER BEACON Lat: -37.95 Lon: 144.93 Height: 17.0 m
Data from the previous 72 hours. | See also: Recent months at Fawkner Beacon
Date/Time
EDT
Temp
°C
App
Temp
°C
Dew
Point
°C
Rel
Hum
%
Delta-T
°C
Wind Press
QNH
hPa
Press
MSL
hPa
Rain since
9am
mm
Dir  Spd
km/h
Gust
km/h
Spd
kts
Gust
kts
25/12:00am - - - - - SSW 39 46 21 25 - - -
 
Date/Time
EDT
Temp
°C
App
Temp
°C
Dew
Point
°C
Rel
Hum
%
Delta-T
°C
Wind Press
QNH
hPa
Press
MSL
hPa
Rain since
9am
mm
Dir  Spd
km/h
Gust
km/h
Spd
kts
Gust
kts
24/11:30pm - - - - - S 33 43 18 23 - - -
24/11:00pm - - - - - SSW 39 50 21 27 - - -
24/10:30pm - - - - - SSW 35 44 19 24 - - -
24/10:00pm - - - - - SSW 33 44 18 24 - - -
24/09:30pm - - - - - SSW 35 43 19 23 - - -
24/09:00pm - - - - - SSW 32 41 17 22 - - -
24/08:30pm - - - - - SSW 35 41 19 22 - - -
24/08:00pm - - - - - SSW 39 48 21 26 - - -
24/07:30pm - - - - - SSW 39 44 21 24 - - -
24/07:00pm - - - - - SSW 37 46 20 25 - - -
24/06:30pm - - - - - SSW 43 48 23 26 - - -
24/06:00pm - - - - - SSW 43 50 23 27 - - -
24/05:30pm - - - - - S 39 48 21 26 - - -
24/05:00pm - - - - - S 44 50 24 27 - - -
24/04:30pm - - - - - S 41 48 22 26 - - -
24/04:00pm - - - - - S 41 48 22 26 - - -
24/03:30pm - - - - - S 35 43 19 23 - - -
24/03:00pm - - - - - S 33 41 18 22 - - -
24/02:30pm - - - - - S 37 44 20 24 - - -
24/02:00pm - - - - - S 35 43 19 23 - - -
24/01:30pm - - - - - SSW 30 35 16 19 - - -
24/01:00pm - - - - - SSW 32 41 17 22 - - -
24/12:30pm - - - - - SSW 39 44 21 24 - - -
24/12:00pm - - - - - SSW 33 41 18 22 - - -
24/11:30am - - - - - SW 33 43 18 23 - - -
24/11:00am - - - - - SW 33 41 18 22 - - -
24/10:45am - - - - - SSW 37 44 20 24 - - -
24/10:30am - - - - - S 33 44 18 24 - - -
24/10:00am - - - - - S 39 48 21 26 - - -
24/09:50am - - - - - S 39 50 21 27 - - -
24/09:30am - - - - - SSW 28 33 15 18 - - -
24/09:23am - - - - - SSW 43 61 23 33 - - -
24/09:12am - - - - - SSW 41 57 22 31 - - -
24/09:00am - - - - - S 32 39 17 21 - - -
24/08:30am - - - - - SSW 50 59 27 32 - - -
24/08:00am - - - - - SSW 44 50 24 27 - - -
24/07:30am - - - - - SSW 41 50 22 27 - - -
24/07:00am - - - - - SSW 37 48 20 26 - - -
24/06:30am - - - - - SW 32 43 17 23 - - -
24/06:00am - - - - - SW 32 39 17 21 - - -
24/05:30am - - - - - SW 32 39 17 21 - - -
24/05:00am - - - - - SW 35 46 19 25 - - -
24/04:30am - - - - - SW 33 39 18 21 - - -
24/04:00am - - - - - WSW 33 41 18 22 - - -
24/03:30am - - - - - SW 33 41 18 22 - - -
24/03:00am - - - - - SW 33 43 18 23 - - -
24/02:30am - - - - - WSW 32 39 17 21 - - -
24/02:00am - - - - - SW 32 39 17 21 - - -
24/01:30am - - - - - SSW 37 44 20 24 - - -
24/01:00am - - - - - SSW 35 43 19 23 - - -
24/12:30am - - - - - SSW 33 44 18 24 - - -
24/12:00am - - - - - SSW 33 41 18 22 - - -
 
Date/Time
EDT
Temp
°C
App
Temp
°C
Dew
Point
°C
Rel
Hum
%
Delta-T
°C
Wind Press
QNH
hPa
Press
MSL
hPa
Rain since
9am
mm
Dir  Spd
km/h
Gust
km/h
Spd
kts
Gust
kts
23/11:30pm - - - - - SSW 35 50 19 27 - - -
23/11:00pm - - - - - SSW 39 44 21 24 - - -
23/10:30pm - - - - - SSW 41 46 22 25 - - -
23/10:00pm - - - - - SSW 39 46 21 25 - - -
23/09:30pm - - - - - SSW 39 46 21 25 - - -
23/09:00pm - - - - - SSW 35 43 19 23 - - -
23/08:30pm - - - - - SSW 37 46 20 25 - - -
23/08:00pm - - - - - SSW 37 44 20 24 - - -
23/07:30pm - - - - - SSW 41 46 22 25 - - -
23/07:00pm - - - - - SSW 39 44 21 24 - - -
23/06:30pm - - - - - SSW 37 44 20 24 - - -
23/06:00pm - - - - - SSW 32 41 17 22 - - -
23/05:30pm - - - - - SSW 37 43 20 23 - - -
23/05:00pm - - - - - SSW 37 44 20 24 - - -
23/04:30pm - - - - - SSW 33 41 18 22 - - -
23/04:00pm - - - - - SSW 26 32 14 17 - - -
23/03:30pm - - - - - SSW 24 28 13 15 - - -
23/03:00pm - - - - - SSW 20 26 11 14 - - -
23/02:30pm - - - - - S 28 32 15 17 - - -
23/02:00pm - - - - - SSW 30 33 16 18 - - -
23/01:30pm - - - - - S 26 30 14 16 - - -
23/01:00pm - - - - - S 28 33 15 18 - - -
23/12:30pm - - - - - SSW 26 32 14 17 - - -
23/12:00pm - - - - - SSW 24 30 13 16 - - -
23/11:30am - - - - - SSW 28 32 15 17 - - -
23/11:00am - - - - - S 28 32 15 17 - - -
23/10:30am - - - - - S 26 30 14 16 - - -
23/10:00am - - - - - SSW 24 30 13 16 - - -
23/09:30am - - - - - SSW 26 30 14 16 - - -
23/09:00am - - - - - SSW 28 32 15 17 - - -
23/08:30am - - - - - SSW 26 30 14 16 - - -
23/08:00am - - - - - S 24 30 13 16 - - -
23/07:30am - - - - - S 26 30 14 16 - - -
23/07:00am - - - - - S 30 33 16 18 - - -
23/06:30am - - - - - S 30 35 16 19 - - -
23/06:00am - - - - - SSW 32 35 17 19 - - -
23/05:30am - - - - - S 32 35 17 19 - - -
23/05:00am - - - - - SSW 22 26 12 14 - - -
23/04:30am - - - - - SSW 28 33 15 18 - - -
23/04:00am - - - - - SSW 24 28 13 15 - - -
23/03:30am - - - - - SW 26 30 14 16 - - -
23/03:00am - - - - - SW 26 33 14 18 - - -
23/02:30am - - - - - SW 26 30 14 16 - - -
23/02:00am - - - - - SW 20 26 11 14 - - -
23/01:30am - - - - - S 26 30 14 16 - - -
23/01:00am - - - - - SSW 26 30 14 16 - - -
23/12:30am - - - - - SSW 28 33 15 18 - - -
23/12:00am - - - - - SW 24 28 13 15 - - -
 
Date/Time
EDT
Temp
°C
App
Temp
°C
Dew
Point
°C
Rel
Hum
%
Delta-T
°C
Wind Press
QNH
hPa
Press
MSL
hPa
Rain since
9am
mm
Dir  Spd
km/h
Gust
km/h
Spd
kts
Gust
kts
22/11:30pm - - - - - SSW 30 39 16 21 - - -
22/11:00pm - - - - - SSW 30 35 16 19 - - -
22/10:30pm - - - - - SSW 30 35 16 19 - - -
22/10:00pm - - - - - SW 39 46 21 25 - - -
22/09:30pm - - - - - SW 37 48 20 26 - - -
22/09:28pm - - - - - SW 37 44 20 24 - - -
22/09:00pm - - - - - SSW 26 30 14 16 - - -
22/08:30pm - - - - - SSW 32 35 17 19 - - -
22/08:00pm - - - - - SSW 32 39 17 21 - - -
22/07:30pm - - - - - S 33 41 18 22 - - -
22/07:00pm - - - - - S 35 43 19 23 - - -
22/06:30pm - - - - - S 37 44 20 24 - - -
22/06:00pm - - - - - SSW 33 39 18 21 - - -
22/05:30pm - - - - - S 32 33 17 18 - - -
22/05:00pm - - - - - S 28 33 15 18 - - -
22/04:30pm - - - - - S 26 30 14 16 - - -
22/04:00pm - - - - - S 22 26 12 14 - - -
22/03:30pm - - - - - S 20 24 11 13 - - -
22/03:00pm - - - - - SSE 22 24 12 13 - - -
22/02:30pm - - - - - SSE 20 24 11 13 - - -
22/02:00pm - - - - - SSE 17 20 9 11 - - -
22/01:30pm - - - - - S 17 20 9 11 - - -
22/01:00pm - - - - - S 17 20 9 11 - - -
22/12:30pm - - - - - S 15 17 8 9 - - -
22/12:00pm - - - - - SSE 11 15 6 8 - - -
22/11:30am - - - - - SSE 15 17 8 9 - - -
22/11:00am - - - - - NW 9 11 5 6 - - -
22/10:30am - - - - - NW 6 7 3 4 - - -
22/10:00am - - - - - CALM 0 0 0 0 - - -
22/09:30am - - - - - NW 4 6 2 3 - - -
22/09:00am - - - - - NW 6 7 3 4 - - -
22/08:30am - - - - - WNW 6 7 3 4 - - -
22/08:00am - - - - - WNW 6 7 3 4 - - -
22/07:30am - - - - - WNW 7 7 4 4 - - -
22/07:00am - - - - - W 6 9 3 5 - - -
22/06:30am - - - - - SW 9 11 5 6 - - -
22/06:00am - - - - - WSW 11 15 6 8 - - -
22/05:30am - - - - - SW 15 20 8 11 - - -
22/05:00am - - - - - SW 20 24 11 13 - - -
22/04:30am - - - - - SW 19 24 10 13 - - -
22/04:00am - - - - - WSW 19 22 10 12 - - -
22/03:30am - - - - - WSW 20 24 11 13 - - -
22/03:00am - - - - - WSW 15 22 8 12 - - -
22/02:30am - - - - - N 13 15 7 8 - - -
22/02:00am - - - - - N 9 11 5 6 - - -
22/01:30am - - - - - NNW 13 15 7 8 - - -
22/01:00am - - - - - N 9 11 5 6 - - -
22/12:30am - - - - - N 7 9 4 5 - - -

Latest Capital City Observations: Canberra | Sydney | Melbourne | Brisbane | Adelaide | Perth | Hobart | Darwin

Other formats

Comma delimited format used in spreadsheet applications
http://www.bom.gov.au/fwo/IDV60901/IDV60901.95872.axf

JavaScript Object Notation format (JSON) in row-major order
http://www.bom.gov.au/fwo/IDV60901/IDV60901.95872.json

Data quality

Most of these data are generated automatically and are frequently updated. Quality checks on data are not normally performed. It is possible for incorrect values to appear. Refer to information at About Latest Weather Observations and please check the disclaimer before using these data.